createdAt,value
2023-01-07T11:52:26.594Z,4.00
2023-01-07T11:52:52.828Z,3.80
2023-01-07T11:53:02.909Z,4.30
2023-01-07T11:53:13.007Z,4.90
2023-01-07T11:53:23.073Z,5.10
2023-01-07T11:53:33.138Z,4.50
2023-01-07T11:53:43.301Z,4.20
2023-01-07T11:53:53.375Z,3.50
2023-01-07T11:54:03.457Z,4.30
2023-01-07T11:54:13.525Z,3.70
2023-01-07T11:54:23.578Z,3.80
2023-01-07T11:54:33.637Z,3.20
2023-01-07T11:54:43.638Z,3.40
2023-01-07T11:54:53.777Z,3.70
2023-01-07T11:55:03.914Z,5.10
2023-01-07T11:55:14.030Z,4.70
2023-01-07T11:55:24.147Z,4.30
2023-01-07T11:55:34.118Z,2.60
2023-01-07T11:55:44.204Z,2.80
2023-01-07T11:55:54.286Z,2.90
2023-01-07T11:56:04.373Z,5.70
2023-01-07T11:56:14.479Z,5.30
2023-01-07T11:56:24.597Z,4.70
2023-01-07T11:56:34.701Z,2.70
2023-01-07T11:56:44.747Z,3.60
2023-01-07T11:56:55.447Z,3.60
2023-01-07T11:57:04.833Z,3.60
2023-01-07T11:57:14.909Z,3.10
2023-01-07T11:57:24.984Z,3.20
2023-01-07T11:57:35.104Z,3.90
2023-01-07T11:57:45.228Z,3.70
2023-01-07T11:58:28.226Z,3.20
2023-01-07T11:58:28.504Z,3.40
2023-01-07T11:58:28.890Z,3.60
2023-01-07T11:58:31.003Z,3.60
2023-01-07T11:58:38.249Z,3.10
2023-01-07T11:58:48.308Z,2.60
2023-01-07T11:58:58.396Z,2.50
2023-01-07T11:59:08.474Z,3.80
2023-01-07T11:59:18.555Z,4.20
2023-01-07T11:59:28.647Z,4.20
2023-01-07T11:59:38.770Z,2.90
2023-01-07T11:59:48.813Z,2.90
2023-01-07T11:59:58.874Z,3.30
2023-01-07T12:00:08.936Z,3.20
2023-01-07T12:00:18.999Z,2.80
2023-01-07T12:00:28.982Z,2.90
2023-01-07T12:00:39.055Z,4.10
2023-01-07T12:00:49.127Z,5.00
2023-01-07T12:00:59.213Z,4.50
2023-01-07T12:01:09.340Z,3.90
2023-01-07T12:01:19.354Z,3.00
2023-01-07T12:01:29.495Z,3.30
2023-01-07T12:01:39.464Z,2.60
2023-01-07T12:01:49.535Z,2.70
2023-01-07T12:01:59.721Z,3.00
2023-01-07T12:02:09.734Z,2.90
2023-01-07T12:02:19.850Z,3.50
2023-01-07T12:02:30.071Z,3.60
2023-01-07T12:02:40.066Z,4.20
2023-01-07T12:02:50.040Z,3.80
2023-01-07T12:03:00.098Z,4.30
2023-01-07T12:03:10.174Z,4.50
2023-01-07T12:03:20.277Z,4.30
2023-01-07T12:03:30.413Z,3.50
2023-01-07T12:03:40.368Z,2.50
2023-01-07T12:03:50.520Z,3.60
2023-01-07T12:04:00.587Z,3.60
2023-01-07T12:04:10.670Z,3.30
2023-01-07T12:04:20.733Z,2.20
2023-01-07T12:04:30.827Z,2.30
2023-01-07T12:04:40.888Z,2.30
2023-01-07T12:04:50.994Z,2.80
2023-01-07T12:05:01.065Z,3.40
2023-01-07T12:05:11.365Z,3.90
2023-01-07T12:05:21.249Z,2.60
2023-01-07T12:05:31.385Z,3.40
2023-01-07T12:05:41.476Z,3.30
2023-01-07T12:05:51.575Z,4.30
2023-01-07T12:06:01.687Z,3.20
2023-01-07T12:06:11.857Z,3.20
2023-01-07T12:06:21.925Z,3.00
2023-01-07T12:06:31.990Z,3.10
2023-01-07T12:06:42.032Z,3.30
2023-01-07T12:06:52.179Z,3.30
2023-01-07T12:07:02.235Z,3.10
2023-01-07T12:07:12.415Z,2.70
2023-01-07T12:07:22.335Z,2.80
2023-01-07T12:07:32.455Z,2.50
2023-01-07T12:07:42.554Z,2.50
2023-01-07T12:07:52.632Z,2.20
2023-01-07T12:08:02.728Z,2.70
2023-01-07T12:08:12.824Z,2.70
2023-01-07T12:08:22.890Z,2.70
2023-01-07T12:08:32.977Z,2.80
2023-01-07T12:08:43.064Z,3.60
2023-01-07T12:08:53.224Z,3.70
2023-01-07T12:09:03.307Z,3.30
2023-01-07T12:09:13.437Z,3.60
2023-01-07T12:09:23.526Z,4.40
2023-01-07T12:09:33.603Z,4.20
2023-01-07T12:09:43.687Z,3.40
2023-01-07T12:09:53.766Z,2.90
2023-01-07T12:10:03.812Z,3.00
2023-01-07T12:10:13.889Z,2.90
2023-01-07T12:10:23.925Z,2.60
2023-01-07T12:10:34.036Z,3.10
2023-01-07T12:10:44.032Z,3.60
2023-01-07T12:10:54.034Z,3.30
2023-01-07T12:11:04.125Z,2.90
2023-01-07T12:11:14.181Z,2.50
2023-01-07T12:11:24.271Z,2.90
2023-01-07T12:11:34.404Z,3.00
2023-01-07T12:11:45.464Z,3.20
2023-01-07T12:11:54.566Z,2.90
2023-01-07T12:12:04.644Z,3.20
2023-01-07T12:12:14.715Z,3.00
2023-01-07T12:12:24.843Z,2.70
2023-01-07T12:12:35.097Z,2.90
2023-01-07T12:12:45.040Z,2.70
2023-01-07T12:12:55.157Z,2.90
2023-01-07T12:13:05.275Z,2.50
2023-01-07T12:13:15.345Z,2.20
2023-01-07T12:13:25.446Z,2.30
2023-01-07T12:13:35.448Z,2.30
2023-01-07T12:13:45.509Z,2.90
2023-01-07T12:13:55.575Z,2.70
2023-01-07T12:14:05.685Z,2.70
2023-01-07T12:14:15.765Z,2.20
2023-01-07T12:14:25.835Z,2.50
2023-01-07T12:14:35.917Z,2.40
2023-01-07T12:14:46.089Z,2.90
2023-01-07T12:14:56.166Z,2.50
2023-01-07T12:15:06.243Z,2.30
2023-01-07T12:15:16.294Z,2.00
2023-01-07T12:15:26.444Z,2.10
2023-01-07T12:15:36.527Z,2.10
2023-01-07T12:15:46.661Z,3.70
2023-01-07T12:15:56.781Z,3.30
2023-01-07T12:16:06.950Z,3.40
2023-01-07T12:16:16.981Z,1.90
2023-01-07T12:16:27.131Z,3.70
2023-01-07T12:16:37.341Z,4.00
2023-01-07T12:16:47.310Z,3.90
2023-01-07T12:16:57.395Z,2.30
2023-01-07T12:17:07.459Z,2.50
2023-01-07T12:17:17.565Z,2.70
2023-01-07T12:17:27.635Z,2.80
2023-01-07T12:17:37.654Z,3.20
2023-01-07T12:17:47.748Z,4.50
2023-01-07T12:17:57.816Z,4.10
2023-01-07T12:18:07.887Z,3.60
2023-01-07T12:18:17.964Z,3.20
2023-01-07T12:18:28.186Z,3.10
2023-01-07T12:18:38.073Z,3.10
2023-01-07T12:18:48.134Z,2.20
2023-01-07T12:18:58.205Z,2.40
2023-01-07T12:19:08.284Z,2.30
2023-01-07T12:19:18.403Z,2.30
2023-01-07T12:19:28.473Z,2.20
2023-01-07T12:19:38.695Z,2.10
2023-01-07T12:19:48.759Z,1.90
2023-01-07T12:19:58.865Z,1.90
2023-01-07T12:20:08.926Z,2.10
2023-01-07T12:20:19.017Z,2.40
2023-01-07T12:20:29.165Z,2.20
2023-01-07T12:20:39.103Z,2.10
2023-01-07T12:20:49.091Z,2.10
2023-01-07T12:20:59.154Z,2.20
2023-01-07T12:21:09.245Z,3.80
2023-01-07T12:21:19.391Z,3.90
2023-01-07T12:21:29.507Z,4.50
2023-01-07T12:21:39.608Z,3.50
2023-01-07T12:21:49.733Z,3.20
2023-01-07T12:21:59.829Z,2.90
2023-01-07T12:22:09.868Z,2.60
2023-01-07T12:22:19.964Z,2.50
2023-01-07T12:22:30.089Z,2.10
2023-01-07T12:22:40.178Z,3.20
2023-01-07T12:22:50.254Z,4.20
2023-01-07T12:23:00.377Z,5.00
2023-01-07T12:23:10.463Z,3.70
2023-01-07T12:23:20.533Z,3.10
2023-01-07T12:23:30.688Z,2.90
2023-01-07T12:23:40.689Z,2.70
2023-01-07T12:23:50.754Z,2.30
2023-01-07T12:24:00.870Z,2.00
2023-01-07T12:24:10.903Z,2.60
2023-01-07T12:24:20.989Z,2.90
2023-01-07T12:24:31.114Z,3.90
2023-01-07T12:24:41.192Z,3.80
2023-01-07T12:24:51.253Z,3.60
2023-01-07T12:25:01.322Z,2.60
2023-01-07T12:25:11.388Z,2.40
2023-01-07T12:25:21.463Z,3.10
2023-01-07T12:25:33.074Z,3.10
2023-01-07T12:25:41.853Z,3.30
2023-01-07T12:25:51.980Z,2.60
2023-01-07T12:26:02.136Z,2.90
2023-01-07T12:26:12.174Z,2.60
2023-01-07T12:26:22.213Z,2.70
2023-01-07T12:26:32.263Z,2.90
2023-01-07T12:26:42.302Z,2.60
2023-01-07T12:26:52.354Z,3.10
2023-01-07T12:27:02.445Z,2.50
2023-01-07T12:27:12.502Z,3.10
2023-01-07T12:27:22.585Z,3.00
2023-01-07T12:27:32.658Z,3.90
2023-01-07T12:27:42.691Z,3.90
2023-01-07T12:27:52.743Z,4.10
2023-01-07T12:28:02.797Z,3.30
2023-01-07T12:28:12.845Z,2.40
2023-01-07T12:28:22.893Z,2.20
2023-01-07T12:28:32.940Z,2.40
2023-01-07T12:28:42.987Z,2.90
2023-01-07T12:28:53.158Z,2.90
2023-01-07T12:29:03.228Z,3.10
2023-01-07T12:29:13.302Z,2.80
2023-01-07T12:29:23.366Z,3.70
2023-01-07T12:29:33.412Z,3.30
2023-01-07T12:29:43.463Z,3.20
2023-01-07T12:29:53.506Z,2.50
2023-01-07T12:30:03.561Z,3.40
2023-01-07T12:30:13.663Z,3.30
2023-01-07T12:30:23.603Z,3.00
2023-01-07T12:30:33.655Z,2.60
2023-01-07T12:30:44.207Z,2.70
2023-01-07T12:30:53.771Z,2.60
2023-01-07T12:31:03.930Z,2.40
2023-01-07T12:31:14.076Z,2.60
2023-01-07T12:31:24.239Z,2.50
2023-01-07T12:31:34.332Z,3.40
2023-01-07T12:31:44.448Z,3.80
2023-01-07T12:31:54.502Z,3.90
2023-01-07T12:32:04.541Z,3.80
2023-01-07T12:32:14.582Z,3.60
2023-01-07T12:32:24.655Z,3.80
2023-01-07T12:32:34.728Z,2.70
2023-01-07T12:32:44.821Z,2.30
2023-01-07T12:32:54.862Z,2.60
2023-01-07T12:33:04.907Z,3.60
2023-01-07T12:33:15.034Z,4.80
2023-01-07T12:33:25.015Z,4.90
2023-01-07T12:33:35.120Z,4.10
2023-01-07T12:33:45.105Z,3.30
2023-01-07T12:33:55.204Z,3.60
2023-01-07T12:34:05.301Z,3.30
2023-01-07T12:34:15.391Z,2.80
2023-01-07T12:34:25.455Z,2.50
2023-01-07T12:34:35.529Z,2.40
2023-01-07T12:34:45.663Z,2.60
2023-01-07T12:34:55.734Z,2.40
2023-01-07T12:35:15.193Z,2.50
2023-01-07T12:35:16.790Z,2.20
2023-01-07T12:35:26.885Z,2.60
2023-01-07T12:35:36.952Z,3.10
2023-01-07T12:35:47.118Z,3.20
2023-01-07T12:35:57.311Z,2.50
2023-01-07T12:36:07.381Z,1.90
2023-01-07T12:36:17.482Z,2.10
2023-01-07T12:36:27.572Z,2.30
2023-01-07T12:36:37.619Z,2.70
2023-01-07T12:36:47.692Z,2.40
2023-01-07T12:36:57.820Z,2.50
2023-01-07T12:37:07.871Z,2.30
2023-01-07T12:37:17.934Z,2.40
2023-01-07T12:37:28.008Z,1.80
2023-01-07T12:37:38.164Z,2.00
2023-01-07T12:37:48.191Z,1.70
2023-01-07T12:37:58.260Z,1.90
2023-01-07T12:38:08.336Z,1.70
2023-01-07T12:38:18.401Z,2.00
2023-01-07T12:38:28.497Z,2.10
2023-01-07T12:38:38.571Z,2.50
2023-01-07T12:38:48.656Z,2.40
2023-01-07T12:38:58.709Z,2.60
2023-01-07T12:39:08.788Z,2.60
2023-01-07T12:39:18.894Z,2.40
2023-01-07T12:39:28.840Z,2.30
2023-01-07T12:39:38.991Z,2.90
2023-01-07T12:39:49.103Z,3.30
2023-01-07T12:39:59.223Z,3.60
2023-01-07T12:40:09.303Z,2.60
2023-01-07T12:40:19.466Z,2.50
2023-01-07T12:40:29.613Z,2.40
2023-01-07T12:40:39.733Z,2.80
2023-01-07T12:40:49.840Z,2.60
2023-01-07T12:40:59.927Z,2.80
2023-01-07T12:41:09.986Z,2.60
2023-01-07T12:41:20.048Z,2.50
2023-01-07T12:41:30.120Z,3.80
2023-01-07T12:41:40.234Z,3.70
2023-01-07T12:41:50.203Z,3.70
2023-01-07T12:42:00.334Z,2.30
2023-01-07T12:42:10.278Z,2.50
2023-01-07T12:42:30.474Z,2.60
2023-01-07T12:42:40.492Z,2.40
2023-01-07T12:42:50.594Z,2.50
2023-01-07T12:43:00.651Z,3.00
2023-01-07T12:43:10.742Z,3.10
2023-01-07T12:43:20.801Z,2.80
2023-01-07T12:43:30.909Z,2.40
2023-01-07T12:43:41.031Z,2.40
2023-01-07T12:43:51.109Z,2.40
2023-01-07T12:44:01.173Z,2.90
2023-01-07T12:44:11.300Z,3.60
2023-01-07T12:44:21.381Z,4.00
2023-01-07T12:44:31.494Z,4.40
2023-01-07T12:44:41.542Z,3.90
2023-01-07T12:44:51.736Z,3.50
2023-01-07T12:45:01.628Z,2.20
2023-01-07T12:45:11.749Z,2.00
2023-01-07T12:45:21.901Z,2.00
2023-01-07T12:45:31.963Z,2.10
2023-01-07T12:45:42.121Z,2.10
2023-01-07T12:45:52.330Z,1.90
2023-01-07T12:46:02.302Z,2.70
2023-01-07T12:46:12.413Z,4.80
2023-01-07T12:46:22.608Z,4.80
2023-01-07T12:46:32.564Z,4.00
2023-01-07T12:46:42.518Z,1.90
2023-01-07T12:46:52.612Z,2.00
2023-01-07T12:47:31.026Z,2.80
2023-01-07T12:47:31.973Z,2.20
2023-01-07T12:47:32.220Z,2.30
2023-01-07T12:47:35.647Z,3.20
2023-01-07T12:47:45.650Z,3.10
2023-01-07T12:47:55.723Z,2.90
2023-01-07T12:48:05.808Z,2.30
2023-01-07T12:48:15.899Z,2.50
2023-01-07T12:48:25.962Z,3.20
2023-01-07T12:48:36.061Z,3.40
2023-01-07T12:48:46.148Z,3.10
2023-01-07T12:48:56.205Z,2.30
2023-01-07T12:49:06.284Z,2.20
2023-01-07T12:49:16.333Z,3.30
2023-01-07T12:49:26.419Z,3.00
2023-01-07T12:49:36.490Z,3.60
2023-01-07T12:49:46.561Z,2.50
2023-01-07T12:49:56.637Z,2.50
2023-01-07T12:50:06.702Z,2.10
2023-01-07T12:50:16.782Z,2.30
2023-01-07T12:50:26.838Z,2.60
2023-01-07T12:50:38.019Z,3.00
2023-01-07T12:50:46.961Z,2.50
2023-01-07T12:50:57.032Z,2.30
2023-01-07T12:51:07.098Z,2.40
2023-01-07T12:51:17.161Z,2.70
2023-01-07T12:51:27.236Z,2.90
2023-01-07T12:51:37.350Z,2.60
2023-01-07T12:51:47.424Z,2.90
2023-01-07T12:51:57.530Z,3.00
2023-01-07T12:52:07.633Z,3.00
2023-01-07T12:52:17.688Z,2.90
2023-01-07T12:52:27.779Z,2.80
2023-01-07T12:52:37.858Z,3.40
2023-01-07T12:52:47.993Z,3.10
2023-01-07T12:52:58.136Z,3.30
2023-01-07T12:53:08.207Z,3.70
2023-01-07T12:53:18.291Z,4.20
2023-01-07T12:53:28.373Z,4.40
2023-01-07T12:53:38.471Z,3.90
2023-01-07T12:53:48.548Z,4.20
2023-01-07T12:53:58.623Z,4.10
2023-01-07T12:54:08.720Z,3.50
2023-01-07T12:54:18.851Z,2.50
2023-01-07T12:54:28.930Z,2.90
2023-01-07T12:54:39.012Z,2.80
2023-01-07T12:54:49.082Z,3.00
2023-01-07T12:54:59.234Z,2.90
2023-01-07T12:55:09.298Z,3.40
2023-01-07T12:55:19.360Z,3.30
2023-01-07T12:55:29.431Z,2.80
2023-01-07T12:55:39.509Z,2.80
2023-01-07T12:55:49.620Z,4.60
2023-01-07T12:55:59.767Z,5.30
2023-01-07T12:56:09.852Z,5.00
2023-01-07T12:56:20.537Z,3.80
2023-01-07T12:56:30.000Z,3.20
2023-01-07T12:56:40.114Z,3.60
2023-01-07T12:56:50.174Z,2.90
2023-01-07T12:57:00.243Z,3.30
2023-01-07T12:57:10.332Z,2.80
2023-01-07T12:57:20.404Z,3.20
2023-01-07T12:57:30.509Z,2.90
2023-01-07T12:57:40.668Z,3.10
2023-01-07T12:57:50.848Z,2.70
2023-01-07T12:58:00.919Z,2.50
2023-01-07T12:58:11.006Z,2.10
2023-01-07T12:58:21.121Z,2.90
2023-01-07T12:58:31.200Z,2.90
2023-01-07T12:58:41.253Z,3.10
2023-01-07T12:58:51.332Z,2.70
2023-01-07T12:59:01.391Z,2.60
2023-01-07T12:59:11.458Z,2.20
2023-01-07T12:59:46.964Z,2.30
2023-01-07T12:59:47.163Z,2.80
2023-01-07T12:59:47.340Z,2.40
2023-01-07T12:59:54.554Z,2.60
2023-01-07T13:00:04.601Z,2.90
2023-01-07T13:00:14.720Z,2.40
2023-01-07T13:00:24.832Z,2.10
2023-01-07T13:00:34.862Z,2.20
2023-01-07T13:00:44.969Z,2.40
2023-01-07T13:00:55.084Z,3.10
2023-01-07T13:01:05.247Z,3.30
2023-01-07T13:01:15.249Z,3.30
2023-01-07T13:01:25.385Z,3.40
2023-01-07T13:01:35.329Z,2.70
2023-01-07T13:01:45.365Z,2.40
2023-01-07T13:01:55.531Z,1.90
2023-01-07T13:02:05.475Z,2.90
2023-01-07T13:02:15.501Z,4.00
2023-01-07T13:02:25.548Z,4.60
2023-01-07T13:02:37.476Z,3.90
2023-01-07T13:02:45.558Z,2.90
2023-01-07T13:02:55.686Z,2.60
2023-01-07T13:03:05.731Z,2.50
2023-01-07T13:03:15.800Z,2.70
2023-01-07T13:03:25.877Z,2.70
2023-01-07T13:03:35.958Z,2.90
2023-01-07T13:03:46.089Z,2.40
2023-01-07T13:03:56.235Z,2.50
2023-01-07T13:04:06.365Z,2.70
2023-01-07T13:04:16.420Z,3.90
2023-01-07T13:04:26.576Z,3.70
2023-01-07T13:04:36.667Z,3.90
2023-01-07T13:04:46.817Z,2.90
2023-01-07T13:04:56.970Z,2.70
2023-01-07T13:05:07.065Z,2.20
2023-01-07T13:05:17.067Z,2.60
2023-01-07T13:05:27.137Z,3.50
2023-01-07T13:05:37.211Z,3.00
2023-01-07T13:05:47.337Z,3.20
2023-01-07T13:05:57.397Z,4.00
2023-01-07T13:06:07.419Z,4.90
2023-01-07T13:06:17.487Z,4.70
2023-01-07T13:06:27.571Z,3.70
2023-01-07T13:06:37.662Z,3.70
2023-01-07T13:06:47.729Z,3.70
2023-01-07T13:06:57.809Z,3.40
2023-01-07T13:07:07.859Z,3.00
2023-01-07T13:07:17.949Z,2.80
2023-01-07T13:07:28.021Z,3.00
2023-01-07T13:07:38.128Z,3.30
2023-01-07T13:07:48.222Z,3.40
2023-01-07T13:07:58.290Z,4.00
2023-01-07T13:08:08.360Z,4.00
2023-01-07T13:08:18.436Z,4.30
2023-01-07T13:08:28.588Z,3.80
2023-01-07T13:08:38.643Z,4.40
2023-01-07T13:08:48.713Z,4.70
2023-01-07T13:08:58.766Z,4.50
2023-01-07T13:09:08.828Z,4.40
2023-01-07T13:09:18.880Z,3.90
2023-01-07T13:09:28.907Z,4.30
2023-01-07T13:09:38.960Z,3.70
2023-01-07T13:09:49.045Z,3.60
2023-01-07T13:09:59.147Z,3.00
2023-01-07T13:10:09.259Z,3.50
2023-01-07T13:10:19.341Z,3.70
2023-01-07T13:10:29.422Z,3.30
2023-01-07T13:10:39.546Z,2.60
2023-01-07T13:10:49.632Z,2.50
2023-01-07T13:10:59.700Z,2.60
2023-01-07T13:11:09.828Z,3.40
2023-01-07T13:11:19.889Z,3.60
2023-01-07T13:11:29.995Z,3.40
2023-01-07T13:11:40.062Z,2.60
2023-01-07T13:11:50.315Z,2.70
2023-01-07T13:12:00.386Z,3.10
2023-01-07T13:12:40.898Z,3.80
2023-01-07T13:12:41.867Z,4.20
2023-01-07T13:12:42.241Z,3.50
2023-01-07T13:12:43.552Z,3.40
2023-01-07T13:12:53.459Z,3.30
2023-01-07T13:13:03.531Z,3.20
2023-01-07T13:13:14.833Z,3.30
2023-01-07T13:13:23.750Z,3.00
2023-01-07T13:13:33.809Z,3.40
2023-01-07T13:13:43.878Z,3.80
2023-01-07T13:13:53.991Z,3.70
2023-01-07T13:14:04.047Z,3.00
2023-01-07T13:14:14.148Z,2.90
2023-01-07T13:14:24.286Z,3.00
2023-01-07T13:14:34.418Z,3.60
2023-01-07T13:14:44.518Z,3.60
2023-01-07T13:14:54.614Z,4.10
2023-01-07T13:15:04.679Z,3.70
2023-01-07T13:15:14.783Z,3.40
2023-01-07T13:15:24.865Z,3.10
2023-01-07T13:15:35.003Z,3.60
2023-01-07T13:15:44.935Z,3.60
2023-01-07T13:15:55.087Z,3.70
2023-01-07T13:16:05.269Z,3.70
2023-01-07T13:16:15.279Z,3.60
2023-01-07T13:16:25.260Z,2.80
2023-01-07T13:16:35.396Z,2.60
2023-01-07T13:16:45.356Z,3.10
2023-01-07T13:16:55.407Z,4.00
2023-01-07T13:17:05.500Z,3.80
2023-01-07T13:17:15.607Z,3.90
2023-01-07T13:17:25.674Z,3.10
2023-01-07T13:17:35.746Z,3.10
2023-01-07T13:17:45.844Z,2.60
2023-01-07T13:17:55.924Z,2.70
2023-01-07T13:18:05.987Z,4.50
2023-01-07T13:18:16.078Z,5.10
2023-01-07T13:18:26.150Z,5.20
2023-01-07T13:18:36.227Z,3.70
2023-01-07T13:18:46.372Z,3.20
2023-01-07T13:18:56.467Z,3.20
2023-01-07T13:19:06.536Z,2.80
2023-01-07T13:19:16.648Z,2.70
2023-01-07T13:19:26.707Z,3.20
2023-01-07T13:19:36.777Z,3.40
2023-01-07T13:19:46.866Z,3.30
2023-01-07T13:19:56.928Z,3.60
2023-01-07T13:20:07.004Z,3.60
2023-01-07T13:20:17.058Z,3.70
2023-01-07T13:20:27.121Z,2.80
2023-01-07T13:20:37.152Z,2.90
2023-01-07T13:20:47.245Z,3.30
2023-01-07T13:20:57.317Z,3.20
2023-01-07T13:21:07.454Z,3.30
2023-01-07T13:21:17.536Z,2.70
2023-01-07T13:21:27.583Z,3.10
2023-01-07T13:21:37.633Z,2.60
2023-01-07T13:21:47.737Z,3.20
2023-01-07T13:21:57.817Z,3.40
2023-01-07T13:22:07.905Z,3.50
2023-01-07T13:22:18.012Z,2.90
2023-01-07T13:22:28.168Z,2.60
2023-01-07T13:22:38.228Z,4.00
2023-01-07T13:22:48.307Z,4.80
2023-01-07T13:22:58.450Z,4.50
2023-01-07T13:23:08.559Z,3.30
2023-01-07T13:23:18.679Z,2.60
2023-01-07T13:23:28.738Z,2.40
2023-01-07T13:23:38.803Z,2.30
2023-01-07T13:23:48.954Z,2.30
2023-01-07T13:23:59.172Z,2.70
2023-01-07T13:24:09.100Z,2.40
2023-01-07T13:24:19.381Z,2.10
2023-01-07T13:24:54.480Z,3.90
2023-01-07T13:24:54.640Z,2.80
2023-01-07T13:24:55.806Z,2.00
2023-01-07T13:25:02.145Z,4.20
2023-01-07T13:25:12.155Z,3.90
2023-01-07T13:25:22.197Z,3.70
2023-01-07T13:25:32.267Z,3.40
2023-01-07T13:25:42.408Z,3.90
2023-01-07T13:25:52.455Z,4.40
2023-01-07T13:26:02.538Z,5.00
2023-01-07T13:26:12.577Z,4.60
2023-01-07T13:26:22.695Z,3.30
2023-01-07T13:26:32.739Z,3.00
2023-01-07T13:26:42.891Z,2.70
2023-01-07T13:26:52.973Z,2.90
2023-01-07T13:27:03.054Z,2.60
2023-01-07T13:27:13.112Z,2.90
2023-01-07T13:27:23.175Z,3.10
2023-01-07T13:27:33.237Z,3.10
2023-01-07T13:27:43.305Z,2.60
2023-01-07T13:27:53.370Z,2.40
2023-01-07T13:28:03.458Z,2.30
2023-01-07T13:28:13.519Z,3.10
2023-01-07T13:28:23.640Z,3.00
2023-01-07T13:28:33.678Z,3.00
2023-01-07T13:28:43.744Z,2.50
2023-01-07T13:28:53.806Z,2.30
2023-01-07T13:29:03.856Z,2.90
2023-01-07T13:29:13.938Z,3.10
2023-01-07T13:29:24.056Z,3.40
2023-01-07T13:29:34.108Z,3.60
2023-01-07T13:29:44.175Z,3.60
2023-01-07T13:29:54.265Z,3.40
2023-01-07T13:30:04.248Z,3.70
2023-01-07T13:30:14.375Z,4.20
2023-01-07T13:30:24.438Z,4.50
2023-01-07T13:30:34.547Z,4.20
2023-01-07T13:30:44.625Z,4.20
2023-01-07T13:30:54.697Z,4.20
2023-01-07T13:31:04.808Z,5.00
2023-01-07T13:31:14.944Z,5.10
2023-01-07T13:31:25.099Z,4.70
2023-01-07T13:31:35.093Z,4.10
2023-01-07T13:31:45.179Z,3.50
2023-01-07T13:31:55.236Z,3.60
2023-01-07T13:32:05.316Z,3.60
2023-01-07T13:32:15.401Z,3.60
2023-01-07T13:32:25.486Z,4.00
2023-01-07T13:32:35.555Z,4.70
2023-01-07T13:32:45.705Z,4.40
2023-01-07T13:32:55.670Z,4.10
2023-01-07T13:33:05.794Z,3.20
2023-01-07T13:33:15.883Z,3.30
2023-01-07T13:33:26.004Z,3.70
2023-01-07T13:33:36.116Z,4.70
2023-01-07T13:33:46.240Z,4.60
2023-01-07T13:33:56.368Z,4.10
2023-01-07T13:34:06.428Z,3.50
2023-01-07T13:34:16.515Z,3.80
2023-01-07T13:34:26.568Z,4.70
2023-01-07T13:34:36.656Z,5.70
2023-01-07T13:34:46.778Z,5.20
2023-01-07T13:34:56.862Z,4.30
2023-01-07T13:35:06.915Z,4.00
2023-01-07T13:35:17.014Z,4.20
2023-01-07T13:35:27.036Z,4.70
2023-01-07T13:35:37.125Z,4.00
2023-01-07T13:35:47.209Z,4.60
2023-01-07T13:35:57.340Z,4.30
2023-01-07T13:36:07.418Z,4.30
2023-01-07T13:36:17.485Z,3.60
2023-01-07T13:36:27.536Z,4.30
2023-01-07T13:36:37.587Z,4.40
2023-01-07T13:36:47.656Z,4.40
2023-01-07T13:36:57.651Z,3.50
2023-01-07T13:37:07.760Z,4.10
2023-01-07T13:37:17.817Z,4.20
2023-01-07T13:37:27.883Z,5.60
2023-01-07T13:37:37.945Z,5.80
2023-01-07T13:37:48.024Z,5.90
2023-01-07T13:37:58.073Z,4.30
2023-01-07T13:38:08.212Z,3.30
2023-01-07T13:38:18.287Z,3.10
2023-01-07T13:38:28.366Z,3.60
2023-01-07T13:38:38.455Z,3.80
2023-01-07T13:38:48.529Z,4.10
2023-01-07T13:38:58.573Z,3.80
2023-01-07T13:39:08.667Z,4.60
2023-01-07T13:39:18.802Z,5.20
2023-01-07T13:39:28.856Z,5.10
2023-01-07T13:39:38.997Z,4.20
2023-01-07T13:39:49.086Z,3.70
2023-01-07T13:39:59.166Z,5.00
2023-01-07T13:40:09.216Z,5.60
2023-01-07T13:40:19.336Z,5.40
2023-01-07T13:40:29.434Z,3.80
2023-01-07T13:40:39.516Z,3.30
2023-01-07T13:40:49.598Z,3.90
2023-01-07T13:40:59.650Z,4.20
2023-01-07T13:41:09.710Z,4.40
2023-01-07T13:41:19.776Z,4.40
2023-01-07T13:41:29.838Z,4.60
2023-01-07T13:41:39.924Z,4.40
2023-01-07T13:41:50.049Z,4.50
2023-01-07T13:42:00.115Z,4.20
2023-01-07T13:42:10.194Z,4.50
2023-01-07T13:42:20.284Z,3.90
2023-01-07T13:42:30.384Z,3.80
2023-01-07T13:42:40.493Z,3.90
2023-01-07T13:42:50.546Z,4.50
2023-01-07T13:43:00.622Z,4.30
2023-01-07T13:43:10.752Z,4.00
2023-01-07T13:43:20.872Z,3.80
2023-01-07T13:43:30.968Z,4.40
2023-01-07T13:43:41.065Z,4.20
2023-01-07T13:43:51.137Z,3.70
2023-01-07T13:44:01.186Z,3.50
2023-01-07T13:44:11.276Z,3.40
2023-01-07T13:44:21.348Z,3.50
2023-01-07T13:44:31.421Z,3.30
2023-01-07T13:44:41.455Z,3.60
2023-01-07T13:44:51.525Z,3.50
2023-01-07T13:45:01.602Z,4.00
2023-01-07T13:45:11.681Z,3.60
2023-01-07T13:45:21.754Z,3.90
2023-01-07T13:45:31.805Z,3.60
2023-01-07T13:45:41.867Z,3.30
2023-01-07T13:45:51.949Z,2.90
2023-01-07T13:46:01.995Z,2.50
2023-01-07T13:46:12.172Z,2.70
2023-01-07T13:46:22.303Z,3.10
2023-01-07T13:46:32.403Z,3.40
2023-01-07T13:46:42.486Z,3.20
2023-01-07T13:46:52.458Z,3.40
2023-01-07T13:47:02.535Z,3.40
2023-01-07T13:47:12.580Z,3.70
2023-01-07T13:47:22.647Z,3.20
2023-01-07T13:47:32.723Z,3.20
2023-01-07T13:47:42.839Z,3.00
2023-01-07T13:47:52.897Z,2.70
2023-01-07T13:48:02.958Z,2.90
2023-01-07T13:48:14.146Z,4.90
2023-01-07T13:48:23.164Z,5.30
2023-01-07T13:48:33.243Z,4.90
2023-01-07T13:48:43.353Z,3.60
2023-01-07T13:48:53.414Z,3.30
2023-01-07T13:49:03.560Z,4.30
2023-01-07T13:49:13.588Z,3.50
2023-01-07T13:49:23.468Z,3.50
2023-01-07T13:49:33.545Z,3.30
2023-01-07T13:49:56.733Z,3.40
2023-01-07T13:49:57.147Z,3.90
2023-01-07T13:50:04.646Z,3.70
2023-01-07T13:50:14.745Z,4.60
2023-01-07T13:50:24.824Z,4.20
2023-01-07T13:50:34.898Z,3.80
2023-01-07T13:50:44.886Z,2.60
2023-01-07T13:50:54.903Z,2.90
2023-01-07T13:51:04.963Z,3.00
2023-01-07T13:51:15.064Z,3.10
2023-01-07T13:51:25.165Z,3.30
2023-01-07T13:51:35.216Z,3.40
2023-01-07T13:51:45.276Z,3.00
2023-01-07T13:51:55.394Z,2.50
2023-01-07T13:52:05.457Z,3.50
2023-01-07T13:52:15.546Z,4.60
2023-01-07T13:52:25.686Z,4.70
2023-01-07T13:52:35.776Z,4.00
2023-01-07T13:52:45.723Z,4.20
2023-01-07T13:52:55.737Z,5.90
2023-01-07T13:53:05.824Z,7.60
2023-01-07T13:53:15.898Z,7.20
2023-01-07T13:53:26.044Z,9.90
2023-01-07T13:53:36.176Z,8.40
2023-01-07T13:53:46.241Z,8.70
2023-01-07T13:53:56.363Z,5.20
2023-01-07T13:54:06.476Z,5.70
2023-01-07T13:54:16.554Z,6.00
2023-01-07T13:54:26.616Z,5.70
2023-01-07T13:54:36.698Z,5.20
2023-01-07T13:54:46.775Z,4.10
2023-01-07T13:54:56.878Z,4.70
2023-01-07T13:55:06.928Z,5.30
2023-01-07T13:55:16.986Z,6.90
2023-01-07T13:55:27.095Z,7.70
2023-01-07T13:55:37.160Z,9.60
2023-01-07T13:55:47.277Z,9.40
2023-01-07T13:55:57.347Z,10.70
2023-01-07T13:56:07.406Z,9.20
2023-01-07T13:56:17.552Z,8.70
2023-01-07T13:56:27.615Z,6.50
2023-01-07T13:56:37.705Z,5.70
2023-01-07T13:56:47.766Z,5.70
2023-01-07T13:56:57.864Z,5.90
2023-01-07T13:57:07.915Z,6.30
2023-01-07T13:57:17.975Z,6.30
2023-01-07T13:57:28.040Z,7.30
2023-01-07T13:57:38.244Z,6.90
2023-01-07T13:57:48.126Z,6.10
2023-01-07T13:57:58.184Z,4.60
2023-01-07T13:58:08.254Z,6.20
2023-01-07T13:58:18.303Z,6.30
2023-01-07T13:58:28.343Z,6.10
2023-01-07T13:58:38.428Z,4.70
2023-01-07T13:58:48.476Z,4.60
2023-01-07T13:58:58.533Z,4.10
2023-01-07T13:59:08.564Z,3.40
2023-01-07T13:59:18.606Z,3.60
2023-01-07T13:59:28.646Z,3.40
2023-01-07T13:59:38.714Z,3.10
2023-01-07T13:59:48.845Z,2.60
2023-01-07T13:59:58.960Z,2.90
2023-01-07T14:00:09.076Z,3.70
2023-01-07T14:00:21.484Z,3.70
2023-01-07T14:00:29.167Z,3.70
2023-01-07T14:00:39.316Z,3.20
2023-01-07T14:00:49.394Z,2.70
2023-01-07T14:00:59.560Z,2.80
2023-01-07T14:01:09.807Z,2.60
2023-01-07T14:01:19.832Z,3.20
2023-01-07T14:01:29.935Z,3.10
2023-01-07T14:01:39.932Z,3.80
2023-01-07T14:01:49.985Z,4.20
2023-01-07T14:02:00.018Z,4.70
2023-01-07T14:02:10.022Z,4.40
2023-01-07T14:02:20.263Z,3.30
2023-01-07T14:02:30.284Z,3.10
2023-01-07T14:02:40.392Z,3.30
2023-01-07T14:02:50.386Z,3.80
2023-01-07T14:03:00.468Z,3.70
2023-01-07T14:03:10.545Z,3.70
2023-01-07T14:03:20.680Z,3.50
2023-01-07T14:03:30.778Z,3.50
2023-01-07T14:03:40.893Z,3.10
2023-01-07T14:03:50.960Z,2.70
2023-01-07T14:04:01.049Z,4.10
2023-01-07T14:04:11.114Z,4.40
2023-01-07T14:04:21.192Z,4.30
2023-01-07T14:04:31.266Z,3.20
2023-01-07T14:04:41.420Z,2.90
2023-01-07T14:04:51.512Z,3.10
2023-01-07T14:05:01.519Z,2.90
2023-01-07T14:05:11.595Z,2.80
2023-01-07T14:05:21.755Z,2.80
2023-01-07T14:05:31.812Z,3.70
2023-01-07T14:05:41.905Z,3.50
2023-01-07T14:05:51.996Z,4.10
2023-01-07T14:06:02.095Z,3.10
2023-01-07T14:06:12.194Z,3.40
2023-01-07T14:06:22.258Z,2.40
2023-01-07T14:06:32.333Z,2.80
2023-01-07T14:06:42.443Z,3.20
2023-01-07T14:06:52.523Z,3.60
2023-01-07T14:07:02.630Z,3.80
2023-01-07T14:07:12.695Z,3.30